sensor_id;sensor_type;location;lat;lon;timestamp;noise_LAeq;noise_LA_min;noise_LA_max;noise_LA01;noise_LA95
76217;Laerm;65010;50.190;18.930;2023-02-19T00:01:48;38.90;36.65;50.71;;
76217;Laerm;65010;50.190;18.930;2023-02-19T00:04:53;39.24;36.57;66.07;;
76217;Laerm;65010;50.190;18.930;2023-02-19T00:08:00;38.59;36.52;49.60;;
76217;Laerm;65010;50.190;18.930;2023-02-19T00:11:14;39.11;36.30;52.59;;
76217;Laerm;65010;50.190;18.930;2023-02-19T00:14:21;37.66;36.07;51.32;;
76217;Laerm;65010;50.190;18.930;2023-02-19T00:17:27;45.00;35.22;66.35;;
76217;Laerm;65010;50.190;18.930;2023-02-19T00:20:34;37.21;34.25;57.98;;
76217;Laerm;65010;50.190;18.930;2023-02-19T00:23:40;45.04;34.22;64.85;;
76217;Laerm;65010;50.190;18.930;2023-02-19T00:26:49;46.58;34.18;68.37;;
76217;Laerm;65010;50.190;18.930;2023-02-19T00:29:55;35.60;34.40;43.92;;
76217;Laerm;65010;50.190;18.930;2023-02-19T00:33:02;44.82;34.12;65.10;;
76217;Laerm;65010;50.190;18.930;2023-02-19T00:36:08;35.60;34.01;55.45;;
76217;Laerm;65010;50.190;18.930;2023-02-19T00:39:15;35.82;34.38;43.66;;
76217;Laerm;65010;50.190;18.930;2023-02-19T00:42:25;47.00;34.04;68.65;;
76217;Laerm;65010;50.190;18.930;2023-02-19T00:45:32;43.37;34.38;65.15;;
76217;Laerm;65010;50.190;18.930;2023-02-19T00:48:38;35.61;33.84;49.29;;
76217;Laerm;65010;50.190;18.930;2023-02-19T00:51:46;41.44;34.28;60.25;;
76217;Laerm;65010;50.190;18.930;2023-02-19T00:54:52;38.16;34.42;61.88;;
76217;Laerm;65010;50.190;18.930;2023-02-19T00:58:01;39.08;34.56;63.09;;
76217;Laerm;65010;50.190;18.930;2023-02-19T01:01:09;38.30;34.69;65.76;;
76217;Laerm;65010;50.190;18.930;2023-02-19T01:04:16;38.91;34.44;66.82;;
76217;Laerm;65010;50.190;18.930;2023-02-19T01:07:22;45.64;34.51;66.72;;
76217;Laerm;65010;50.190;18.930;2023-02-19T01:10:28;43.52;34.74;65.47;;
76217;Laerm;65010;50.190;18.930;2023-02-19T01:13:37;37.62;34.62;62.95;;
76217;Laerm;65010;50.190;18.930;2023-02-19T01:16:44;38.34;34.65;62.42;;
76217;Laerm;65010;50.190;18.930;2023-02-19T01:19:51;44.75;34.83;65.06;;
76217;Laerm;65010;50.190;18.930;2023-02-19T01:22:58;41.41;34.60;67.63;;
76217;Laerm;65010;50.190;18.930;2023-02-19T01:26:05;41.05;34.63;67.00;;
76217;Laerm;65010;50.190;18.930;2023-02-19T01:29:16;39.23;34.78;67.73;;
76217;Laerm;65010;50.190;18.930;2023-02-19T01:32:21;38.91;34.69;65.91;;
76217;Laerm;65010;50.190;18.930;2023-02-19T01:35:28;38.77;34.35;68.61;;
76217;Laerm;65010;50.190;18.930;2023-02-19T01:38:34;40.00;34.77;68.83;;
76217;Laerm;65010;50.190;18.930;2023-02-19T01:41:41;39.87;34.62;67.35;;
76217;Laerm;65010;50.190;18.930;2023-02-19T01:45:29;37.77;34.68;61.14;;
76217;Laerm;65010;50.190;18.930;2023-02-19T01:48:38;38.48;34.24;69.15;;
76217;Laerm;65010;50.190;18.930;2023-02-19T01:51:48;38.31;34.74;66.60;;
76217;Laerm;65010;50.190;18.930;2023-02-19T01:55:01;38.01;34.68;57.94;;
76217;Laerm;65010;50.190;18.930;2023-02-19T01:58:09;37.85;35.36;65.31;;
76217;Laerm;65010;50.190;18.930;2023-02-19T02:01:19;38.09;35.36;65.18;;
76217;Laerm;65010;50.190;18.930;2023-02-19T02:04:29;44.30;35.32;68.65;;
76217;Laerm;65010;50.190;18.930;2023-02-19T02:07:36;37.92;35.26;66.09;;
76217;Laerm;65010;50.190;18.930;2023-02-19T02:10:56;38.98;35.43;68.72;;
76217;Laerm;65010;50.190;18.930;2023-02-19T02:14:04;37.05;34.07;66.21;;
76217;Laerm;65010;50.190;18.930;2023-02-19T02:17:25;36.84;34.22;66.32;;
76217;Laerm;65010;50.190;18.930;2023-02-19T02:21:07;38.41;34.37;66.79;;
76217;Laerm;65010;50.190;18.930;2023-02-19T02:24:50;38.59;35.15;68.09;;
76217;Laerm;65010;50.190;18.930;2023-02-19T02:28:21;45.72;34.53;66.98;;
76217;Laerm;65010;50.190;18.930;2023-02-19T02:31:41;38.52;34.33;66.22;;
76217;Laerm;65010;50.190;18.930;2023-02-19T02:34:58;37.83;34.33;65.90;;
76217;Laerm;65010;50.190;18.930;2023-02-19T02:38:10;35.58;34.23;48.61;;
76217;Laerm;65010;50.190;18.930;2023-02-19T02:41:19;36.41;34.29;63.60;;
76217;Laerm;65010;50.190;18.930;2023-02-19T02:44:33;35.86;34.41;54.48;;
76217;Laerm;65010;50.190;18.930;2023-02-19T02:47:50;35.55;34.30;45.14;;
76217;Laerm;65010;50.190;18.930;2023-02-19T02:51:07;35.49;34.17;45.19;;
76217;Laerm;65010;50.190;18.930;2023-02-19T02:54:28;35.52;34.03;52.58;;
76217;Laerm;65010;50.190;18.930;2023-02-19T02:57:49;37.80;34.21;64.36;;
76217;Laerm;65010;50.190;18.930;2023-02-19T03:01:02;40.55;34.20;70.06;;
76217;Laerm;65010;50.190;18.930;2023-02-19T03:04:33;37.87;34.38;66.94;;
76217;Laerm;65010;50.190;18.930;2023-02-19T03:08:09;38.09;34.17;67.05;;
76217;Laerm;65010;50.190;18.930;2023-02-19T03:11:20;35.60;34.18;51.42;;
76217;Laerm;65010;50.190;18.930;2023-02-19T03:14:47;36.03;33.90;47.42;;
76217;Laerm;65010;50.190;18.930;2023-02-19T03:18:12;35.47;33.83;47.58;;
76217;Laerm;65010;50.190;18.930;2023-02-19T03:21:40;35.37;34.13;46.29;;
76217;Laerm;65010;50.190;18.930;2023-02-19T03:24:54;36.58;34.05;65.22;;
76217;Laerm;65010;50.190;18.930;2023-02-19T03:28:20;35.36;34.01;43.66;;
76217;Laerm;65010;50.190;18.930;2023-02-19T03:31:52;36.44;34.17;64.24;;
76217;Laerm;65010;50.190;18.930;2023-02-19T03:35:10;36.20;34.25;55.52;;
76217;Laerm;65010;50.190;18.930;2023-02-19T03:38:30;37.47;34.20;58.99;;
76217;Laerm;65010;50.190;18.930;2023-02-19T03:41:57;37.36;35.57;50.68;;
76217;Laerm;65010;50.190;18.930;2023-02-19T03:45:44;37.33;35.72;55.59;;
76217;Laerm;65010;50.190;18.930;2023-02-19T03:49:02;39.05;35.81;60.75;;
76217;Laerm;65010;50.190;18.930;2023-02-19T03:52:21;39.48;37.29;53.70;;
76217;Laerm;65010;50.190;18.930;2023-02-19T03:55:43;39.34;37.28;54.08;;
76217;Laerm;65010;50.190;18.930;2023-02-19T03:59:04;38.10;35.84;53.96;;
76217;Laerm;65010;50.190;18.930;2023-02-19T04:02:26;39.23;35.78;63.56;;
76217;Laerm;65010;50.190;18.930;2023-02-19T04:05:44;39.28;36.16;65.29;;
76217;Laerm;65010;50.190;18.930;2023-02-19T04:08:57;38.40;36.26;60.12;;
76217;Laerm;65010;50.190;18.930;2023-02-19T04:12:09;38.38;36.38;60.30;;
76217;Laerm;65010;50.190;18.930;2023-02-19T04:15:23;39.46;37.13;58.86;;
76217;Laerm;65010;50.190;18.930;2023-02-19T04:18:37;36.44;34.16;52.69;;
76217;Laerm;65010;50.190;18.930;2023-02-19T04:21:48;43.65;34.27;67.70;;
76217;Laerm;65010;50.190;18.930;2023-02-19T04:24:55;35.91;34.07;54.87;;
76217;Laerm;65010;50.190;18.930;2023-02-19T04:28:08;37.01;34.23;53.06;;
76217;Laerm;65010;50.190;18.930;2023-02-19T04:31:14;37.75;34.40;65.51;;
76217;Laerm;65010;50.190;18.930;2023-02-19T04:34:21;36.81;34.17;57.07;;
76217;Laerm;65010;50.190;18.930;2023-02-19T04:37:26;39.49;34.35;69.58;;
76217;Laerm;65010;50.190;18.930;2023-02-19T04:40:33;37.42;34.39;57.40;;
76217;Laerm;65010;50.190;18.930;2023-02-19T04:43:42;37.86;34.56;65.16;;
76217;Laerm;65010;50.190;18.930;2023-02-19T04:46:49;37.66;35.14;55.09;;
76217;Laerm;65010;50.190;18.930;2023-02-19T04:49:55;38.70;35.33;64.58;;
76217;Laerm;65010;50.190;18.930;2023-02-19T04:53:01;37.94;35.03;59.96;;
76217;Laerm;65010;50.190;18.930;2023-02-19T04:56:08;36.79;34.85;56.23;;
76217;Laerm;65010;50.190;18.930;2023-02-19T04:59:18;36.47;34.55;50.51;;
76217;Laerm;65010;50.190;18.930;2023-02-19T05:02:24;36.85;34.55;52.53;;
76217;Laerm;65010;50.190;18.930;2023-02-19T05:05:31;37.69;34.29;63.93;;
76217;Laerm;65010;50.190;18.930;2023-02-19T05:08:36;37.76;35.71;51.54;;
76217;Laerm;65010;50.190;18.930;2023-02-19T05:11:43;39.22;36.04;65.03;;
76217;Laerm;65010;50.190;18.930;2023-02-19T05:14:51;42.32;37.65;65.18;;
76217;Laerm;65010;50.190;18.930;2023-02-19T05:17:58;40.63;37.33;52.62;;
76217;Laerm;65010;50.190;18.930;2023-02-19T05:21:05;39.80;37.56;52.51;;
76217;Laerm;65010;50.190;18.930;2023-02-19T05:24:12;39.72;37.47;55.98;;
76217;Laerm;65010;50.190;18.930;2023-02-19T05:27:17;40.56;38.02;57.22;;
76217;Laerm;65010;50.190;18.930;2023-02-19T05:30:29;41.54;37.52;62.19;;
76217;Laerm;65010;50.190;18.930;2023-02-19T05:33:36;40.01;37.74;45.52;;
76217;Laerm;65010;50.190;18.930;2023-02-19T05:36:43;39.92;38.03;56.71;;
76217;Laerm;65010;50.190;18.930;2023-02-19T05:39:49;39.29;37.44;42.28;;
76217;Laerm;65010;50.190;18.930;2023-02-19T05:42:56;38.84;36.85;44.76;;
76217;Laerm;65010;50.190;18.930;2023-02-19T05:46:06;38.91;36.93;60.85;;
76217;Laerm;65010;50.190;18.930;2023-02-19T05:49:12;38.79;36.79;46.33;;
76217;Laerm;65010;50.190;18.930;2023-02-19T05:52:19;38.85;36.98;43.63;;
76217;Laerm;65010;50.190;18.930;2023-02-19T05:55:25;39.77;37.49;54.50;;
76217;Laerm;65010;50.190;18.930;2023-02-19T05:58:31;44.22;35.33;64.60;;
76217;Laerm;65010;50.190;18.930;2023-02-19T06:01:40;45.49;34.72;67.90;;
76217;Laerm;65010;50.190;18.930;2023-02-19T06:04:46;39.23;35.87;55.58;;
76217;Laerm;65010;50.190;18.930;2023-02-19T06:07:53;48.76;37.89;66.58;;
76217;Laerm;65010;50.190;18.930;2023-02-19T06:10:58;41.37;37.35;65.51;;
76217;Laerm;65010;50.190;18.930;2023-02-19T06:14:06;46.07;38.21;65.29;;
76217;Laerm;65010;50.190;18.930;2023-02-19T06:17:14;49.80;37.91;70.11;;
76217;Laerm;65010;50.190;18.930;2023-02-19T06:20:21;40.86;38.25;62.70;;
76217;Laerm;65010;50.190;18.930;2023-02-19T06:23:28;41.12;37.89;65.68;;
76217;Laerm;65010;50.190;18.930;2023-02-19T06:26:35;40.16;37.83;59.89;;
76217;Laerm;65010;50.190;18.930;2023-02-19T06:29:41;40.77;37.68;67.26;;
76217;Laerm;65010;50.190;18.930;2023-02-19T06:32:51;46.25;37.25;67.58;;
76217;Laerm;65010;50.190;18.930;2023-02-19T06:35:58;43.70;36.91;62.88;;
76217;Laerm;65010;50.190;18.930;2023-02-19T06:39:06;44.45;36.96;63.50;;
76217;Laerm;65010;50.190;18.930;2023-02-19T06:42:11;46.40;38.82;65.62;;
76217;Laerm;65010;50.190;18.930;2023-02-19T06:45:18;46.81;35.33;64.48;;
76217;Laerm;65010;50.190;18.930;2023-02-19T06:48:30;45.60;34.87;66.31;;
76217;Laerm;65010;50.190;18.930;2023-02-19T06:51:37;45.55;36.83;66.18;;
76217;Laerm;65010;50.190;18.930;2023-02-19T06:54:43;51.61;37.38;70.13;;
76217;Laerm;65010;50.190;18.930;2023-02-19T06:57:50;45.59;37.58;64.12;;
76217;Laerm;65010;50.190;18.930;2023-02-19T07:00:55;41.82;38.23;64.55;;
76217;Laerm;65010;50.190;18.930;2023-02-19T07:04:06;42.51;38.66;64.23;;
76217;Laerm;65010;50.190;18.930;2023-02-19T07:07:12;42.13;38.74;64.80;;
76217;Laerm;65010;50.190;18.930;2023-02-19T07:10:18;44.90;38.86;64.81;;
76217;Laerm;65010;50.190;18.930;2023-02-19T07:13:26;45.30;39.40;67.26;;
76217;Laerm;65010;50.190;18.930;2023-02-19T07:16:32;47.70;38.57;67.38;;
76217;Laerm;65010;50.190;18.930;2023-02-19T07:19:41;42.63;38.08;65.23;;
76217;Laerm;65010;50.190;18.930;2023-02-19T07:22:48;43.14;38.18;65.94;;
76217;Laerm;65010;50.190;18.930;2023-02-19T07:25:56;43.23;37.22;65.13;;
76217;Laerm;65010;50.190;18.930;2023-02-19T07:29:03;42.21;37.41;65.50;;
76217;Laerm;65010;50.190;18.930;2023-02-19T07:32:09;44.87;38.26;66.70;;
76217;Laerm;65010;50.190;18.930;2023-02-19T07:35:19;40.92;37.99;66.05;;
76217;Laerm;65010;50.190;18.930;2023-02-19T07:38:27;44.55;37.56;64.77;;
76217;Laerm;65010;50.190;18.930;2023-02-19T07:41:34;46.74;35.58;66.59;;
76217;Laerm;65010;50.190;18.930;2023-02-19T07:44:40;48.93;35.52;68.67;;
76217;Laerm;65010;50.190;18.930;2023-02-19T07:47:47;44.80;35.55;63.83;;
76217;Laerm;65010;50.190;18.930;2023-02-19T07:50:59;40.25;36.85;62.75;;
76217;Laerm;65010;50.190;18.930;2023-02-19T07:54:06;47.29;36.64;68.22;;
76217;Laerm;65010;50.190;18.930;2023-02-19T07:57:12;49.88;36.60;71.83;;
76217;Laerm;65010;50.190;18.930;2023-02-19T08:00:18;46.61;37.55;65.87;;
76217;Laerm;65010;50.190;18.930;2023-02-19T08:03:24;52.12;37.84;69.00;;
76217;Laerm;65010;50.190;18.930;2023-02-19T08:06:31;47.69;37.45;66.53;;
76217;Laerm;65010;50.190;18.930;2023-02-19T08:09:37;45.44;37.29;65.57;;
76217;Laerm;65010;50.190;18.930;2023-02-19T08:12:45;39.97;37.18;62.30;;
76217;Laerm;65010;50.190;18.930;2023-02-19T08:16:13;40.79;37.37;59.17;;
76217;Laerm;65010;50.190;18.930;2023-02-19T08:19:39;48.97;36.95;67.41;;
76217;Laerm;65010;50.190;18.930;2023-02-19T08:22:48;43.91;37.86;64.44;;
76217;Laerm;65010;50.190;18.930;2023-02-19T08:25:58;45.09;37.59;64.19;;
76217;Laerm;65010;50.190;18.930;2023-02-19T08:29:05;48.83;37.73;69.92;;
76217;Laerm;65010;50.190;18.930;2023-02-19T08:32:13;44.50;35.74;62.39;;
76217;Laerm;65010;50.190;18.930;2023-02-19T08:35:20;39.49;35.42;64.43;;
76217;Laerm;65010;50.190;18.930;2023-02-19T08:38:30;41.19;37.16;66.66;;
76217;Laerm;65010;50.190;18.930;2023-02-19T08:41:37;50.73;37.77;67.74;;
76217;Laerm;65010;50.190;18.930;2023-02-19T08:44:44;41.35;37.61;65.05;;
76217;Laerm;65010;50.190;18.930;2023-02-19T08:47:50;49.75;39.32;68.50;;
76217;Laerm;65010;50.190;18.930;2023-02-19T08:50:59;51.58;40.04;68.49;;
76217;Laerm;65010;50.190;18.930;2023-02-19T08:54:09;50.20;39.64;66.96;;
76217;Laerm;65010;50.190;18.930;2023-02-19T08:57:15;47.63;40.00;69.60;;
76217;Laerm;65010;50.190;18.930;2023-02-19T09:00:22;51.72;40.84;68.90;;
76217;Laerm;65010;50.190;18.930;2023-02-19T09:03:30;50.86;41.76;71.68;;
76217;Laerm;65010;50.190;18.930;2023-02-19T09:06:36;51.68;42.58;69.26;;
76217;Laerm;65010;50.190;18.930;2023-02-19T09:09:45;50.21;41.59;71.39;;
76217;Laerm;65010;50.190;18.930;2023-02-19T09:12:51;53.17;41.13;70.25;;
76217;Laerm;65010;50.190;18.930;2023-02-19T09:16:04;48.71;40.41;68.31;;
76217;Laerm;65010;50.190;18.930;2023-02-19T09:19:12;51.06;41.41;67.86;;
76217;Laerm;65010;50.190;18.930;2023-02-19T09:22:19;47.98;40.64;67.18;;
76217;Laerm;65010;50.190;18.930;2023-02-19T09:25:27;51.20;39.39;66.95;;
76217;Laerm;65010;50.190;18.930;2023-02-19T09:28:35;46.02;39.31;69.29;;
76217;Laerm;65010;50.190;18.930;2023-02-19T09:31:44;47.11;39.31;66.24;;
76217;Laerm;65010;50.190;18.930;2023-02-19T09:34:51;43.91;38.97;67.44;;
76217;Laerm;65010;50.190;18.930;2023-02-19T09:37:58;43.93;38.66;66.78;;
76217;Laerm;65010;50.190;18.930;2023-02-19T09:41:19;53.42;40.52;72.24;;
76217;Laerm;65010;50.190;18.930;2023-02-19T09:44:32;49.50;38.74;70.66;;
76217;Laerm;65010;50.190;18.930;2023-02-19T09:47:40;51.10;38.90;68.71;;
76217;Laerm;65010;50.190;18.930;2023-02-19T09:50:48;47.36;38.36;67.04;;
76217;Laerm;65010;50.190;18.930;2023-02-19T09:53:57;52.00;37.51;70.23;;
76217;Laerm;65010;50.190;18.930;2023-02-19T09:57:15;47.28;37.32;65.69;;
76217;Laerm;65010;50.190;18.930;2023-02-19T10:00:28;50.13;37.36;72.88;;
76217;Laerm;65010;50.190;18.930;2023-02-19T10:03:38;44.30;37.19;63.52;;
76217;Laerm;65010;50.190;18.930;2023-02-19T10:06:50;44.62;36.70;66.91;;
76217;Laerm;65010;50.190;18.930;2023-02-19T10:10:21;47.74;36.38;71.53;;
76217;Laerm;65010;50.190;18.930;2023-02-19T10:13:38;50.91;37.39;67.74;;
76217;Laerm;65010;50.190;18.930;2023-02-19T10:16:49;43.66;35.32;65.89;;
76217;Laerm;65010;50.190;18.930;2023-02-19T10:19:57;48.23;35.38;70.64;;
76217;Laerm;65010;50.190;18.930;2023-02-19T10:23:09;49.78;35.09;69.23;;
76217;Laerm;65010;50.190;18.930;2023-02-19T10:26:19;46.68;35.40;63.67;;
76217;Laerm;65010;50.190;18.930;2023-02-19T10:29:27;49.70;36.63;68.89;;
76217;Laerm;65010;50.190;18.930;2023-02-19T10:32:34;40.33;36.80;63.03;;
76217;Laerm;65010;50.190;18.930;2023-02-19T10:35:55;47.98;36.90;65.48;;
76217;Laerm;65010;50.190;18.930;2023-02-19T10:39:38;48.23;37.93;65.60;;
76217;Laerm;65010;50.190;18.930;2023-02-19T10:42:48;50.78;38.72;70.55;;
76217;Laerm;65010;50.190;18.930;2023-02-19T10:46:02;52.10;37.88;69.80;;
76217;Laerm;65010;50.190;18.930;2023-02-19T10:49:28;48.24;35.15;67.80;;
76217;Laerm;65010;50.190;18.930;2023-02-19T10:52:38;47.46;35.52;65.53;;
76217;Laerm;65010;50.190;18.930;2023-02-19T10:55:45;38.73;35.50;56.38;;
76217;Laerm;65010;50.190;18.930;2023-02-19T10:58:52;38.88;36.39;55.75;;
76217;Laerm;65010;50.190;18.930;2023-02-19T11:02:07;50.64;36.91;66.88;;
76217;Laerm;65010;50.190;18.930;2023-02-19T11:05:21;49.53;37.04;69.13;;
76217;Laerm;65010;50.190;18.930;2023-02-19T11:08:29;50.37;38.15;67.93;;
76217;Laerm;65010;50.190;18.930;2023-02-19T11:11:38;43.39;36.94;61.05;;
76217;Laerm;65010;50.190;18.930;2023-02-19T11:14:46;42.78;36.83;67.89;;
76217;Laerm;65010;50.190;18.930;2023-02-19T11:18:18;48.64;36.65;66.21;;
76217;Laerm;65010;50.190;18.930;2023-02-19T11:21:29;45.22;36.78;65.78;;
76217;Laerm;65010;50.190;18.930;2023-02-19T11:24:38;44.80;37.10;64.27;;
76217;Laerm;65010;50.190;18.930;2023-02-19T11:27:55;47.24;36.96;67.23;;
76217;Laerm;65010;50.190;18.930;2023-02-19T11:31:21;43.90;35.33;63.46;;
76217;Laerm;65010;50.190;18.930;2023-02-19T11:34:33;46.86;35.44;64.05;;
76217;Laerm;65010;50.190;18.930;2023-02-19T11:37:55;48.45;35.21;65.41;;
76217;Laerm;65010;50.190;18.930;2023-02-19T11:41:17;44.72;35.26;65.25;;
76217;Laerm;65010;50.190;18.930;2023-02-19T11:44:48;57.95;36.91;79.56;;
76217;Laerm;65010;50.190;18.930;2023-02-19T11:48:26;46.16;37.25;64.21;;
76217;Laerm;65010;50.190;18.930;2023-02-19T11:52:05;47.94;37.17;66.24;;
76217;Laerm;65010;50.190;18.930;2023-02-19T11:55:32;40.02;37.03;55.85;;
76217;Laerm;65010;50.190;18.930;2023-02-19T11:58:59;44.34;37.42;61.16;;
76217;Laerm;65010;50.190;18.930;2023-02-19T12:02:44;47.05;36.68;63.15;;
76217;Laerm;65010;50.190;18.930;2023-02-19T12:06:18;44.26;36.36;63.66;;
76217;Laerm;65010;50.190;18.930;2023-02-19T12:09:54;47.94;36.72;64.84;;
76217;Laerm;65010;50.190;18.930;2023-02-19T12:13:17;45.30;35.62;62.14;;
76217;Laerm;65010;50.190;18.930;2023-02-19T12:16:38;46.15;35.86;66.25;;
76217;Laerm;65010;50.190;18.930;2023-02-19T12:20:11;43.01;35.83;61.77;;
76217;Laerm;65010;50.190;18.930;2023-02-19T12:24:17;41.01;35.56;58.03;;
76217;Laerm;65010;50.190;18.930;2023-02-19T12:27:48;45.03;37.34;64.70;;
76217;Laerm;65010;50.190;18.930;2023-02-19T12:31:50;46.64;37.64;64.41;;
76217;Laerm;65010;50.190;18.930;2023-02-19T12:35:33;48.57;37.78;67.09;;
76217;Laerm;65010;50.190;18.930;2023-02-19T12:38:46;45.70;37.30;65.49;;
76217;Laerm;65010;50.190;18.930;2023-02-19T12:42:18;48.70;37.52;65.86;;
76217;Laerm;65010;50.190;18.930;2023-02-19T12:45:36;43.79;36.98;62.42;;
76217;Laerm;65010;50.190;18.930;2023-02-19T12:48:52;41.96;37.03;58.69;;
76217;Laerm;65010;50.190;18.930;2023-02-19T12:52:13;49.60;37.14;65.92;;
76217;Laerm;65010;50.190;18.930;2023-02-19T12:55:28;44.94;37.55;60.67;;
76217;Laerm;65010;50.190;18.930;2023-02-19T12:58:42;43.21;35.97;60.44;;
76217;Laerm;65010;50.190;18.930;2023-02-19T13:02:08;38.45;35.94;47.98;;
76217;Laerm;65010;50.190;18.930;2023-02-19T13:05:30;48.13;35.89;66.41;;
76217;Laerm;65010;50.190;18.930;2023-02-19T13:08:52;51.31;35.95;65.88;;
76217;Laerm;65010;50.190;18.930;2023-02-19T13:12:20;43.90;37.71;62.18;;
76217;Laerm;65010;50.190;18.930;2023-02-19T13:15:39;46.62;37.56;64.23;;
76217;Laerm;65010;50.190;18.930;2023-02-19T13:18:53;39.77;37.73;43.64;;
76217;Laerm;65010;50.190;18.930;2023-02-19T13:22:18;45.41;37.84;62.54;;
76217;Laerm;65010;50.190;18.930;2023-02-19T13:26:01;45.17;36.15;65.73;;
76217;Laerm;65010;50.190;18.930;2023-02-19T13:29:36;48.69;36.16;66.92;;
76217;Laerm;65010;50.190;18.930;2023-02-19T13:32:59;43.55;35.88;60.41;;
76217;Laerm;65010;50.190;18.930;2023-02-19T13:36:22;45.75;36.12;64.03;;
76217;Laerm;65010;50.190;18.930;2023-02-19T13:39:30;51.61;36.16;67.78;;
76217;Laerm;65010;50.190;18.930;2023-02-19T13:42:38;43.38;36.38;60.25;;
76217;Laerm;65010;50.190;18.930;2023-02-19T13:45:46;48.31;36.14;71.25;;
76217;Laerm;65010;50.190;18.930;2023-02-19T13:52:50;49.19;36.11;64.39;;
76217;Laerm;65010;50.190;18.930;2023-02-19T13:55:57;46.41;35.78;63.24;;
76217;Laerm;65010;50.190;18.930;2023-02-19T13:59:26;42.04;36.01;61.87;;
76217;Laerm;65010;50.190;18.930;2023-02-19T14:02:39;44.80;36.04;61.96;;
76217;Laerm;65010;50.190;18.930;2023-02-19T14:06:04;37.70;35.97;45.01;;
76217;Laerm;65010;50.190;18.930;2023-02-19T14:09:45;40.92;35.67;56.73;;
76217;Laerm;65010;50.190;18.930;2023-02-19T14:12:51;46.62;35.95;61.73;;
76217;Laerm;65010;50.190;18.930;2023-02-19T14:15:58;46.24;34.69;61.66;;
76217;Laerm;65010;50.190;18.930;2023-02-19T14:19:13;45.08;34.88;62.11;;
76217;Laerm;65010;50.190;18.930;2023-02-19T14:23:00;48.24;35.21;63.79;;
76217;Laerm;65010;50.190;18.930;2023-02-19T14:26:18;46.81;34.91;63.58;;
76217;Laerm;65010;50.190;18.930;2023-02-19T14:29:28;37.23;35.02;49.72;;
76217;Laerm;65010;50.190;18.930;2023-02-19T14:32:34;44.79;35.60;60.99;;
76217;Laerm;65010;50.190;18.930;2023-02-19T14:35:45;38.27;36.11;49.07;;
76217;Laerm;65010;50.190;18.930;2023-02-19T14:38:57;42.00;36.18;60.89;;
76217;Laerm;65010;50.190;18.930;2023-02-19T14:42:17;45.06;35.79;62.69;;
76217;Laerm;65010;50.190;18.930;2023-02-19T14:45:30;38.00;36.18;50.60;;
76217;Laerm;65010;50.190;18.930;2023-02-19T14:48:47;41.68;35.67;61.56;;
76217;Laerm;65010;50.190;18.930;2023-02-19T14:51:59;45.17;35.92;64.54;;
76217;Laerm;65010;50.190;18.930;2023-02-19T14:55:22;41.08;36.13;61.26;;
76217;Laerm;65010;50.190;18.930;2023-02-19T14:58:33;47.89;35.78;66.03;;
76217;Laerm;65010;50.190;18.930;2023-02-19T15:01:43;43.18;36.24;60.36;;
76217;Laerm;65010;50.190;18.930;2023-02-19T15:04:49;43.69;35.89;61.48;;
76217;Laerm;65010;50.190;18.930;2023-02-19T15:08:01;44.38;36.11;61.37;;
76217;Laerm;65010;50.190;18.930;2023-02-19T15:11:16;46.69;37.04;62.62;;
76217;Laerm;65010;50.190;18.930;2023-02-19T15:14:27;45.04;37.50;60.48;;
76217;Laerm;65010;50.190;18.930;2023-02-19T15:17:40;46.77;37.82;62.50;;
76217;Laerm;65010;50.190;18.930;2023-02-19T15:20:50;45.56;38.78;61.45;;
76217;Laerm;65010;50.190;18.930;2023-02-19T15:24:06;46.31;38.71;67.43;;
76217;Laerm;65010;50.190;18.930;2023-02-19T15:27:18;46.49;38.62;63.65;;
76217;Laerm;65010;50.190;18.930;2023-02-19T15:30:28;47.84;38.70;68.22;;
76217;Laerm;65010;50.190;18.930;2023-02-19T15:33:37;48.63;38.05;67.13;;
76217;Laerm;65010;50.190;18.930;2023-02-19T15:36:44;46.35;37.83;67.68;;
76217;Laerm;65010;50.190;18.930;2023-02-19T15:39:54;46.85;38.52;61.31;;
76217;Laerm;65010;50.190;18.930;2023-02-19T15:43:01;47.93;37.22;63.04;;
76217;Laerm;65010;50.190;18.930;2023-02-19T15:46:18;49.12;38.48;70.41;;
76217;Laerm;65010;50.190;18.930;2023-02-19T15:49:38;46.30;37.94;66.90;;
76217;Laerm;65010;50.190;18.930;2023-02-19T15:52:56;45.15;35.78;64.36;;
76217;Laerm;65010;50.190;18.930;2023-02-19T15:56:13;47.07;35.57;76.20;;
76217;Laerm;65010;50.190;18.930;2023-02-19T15:59:30;45.65;37.60;61.27;;
76217;Laerm;65010;50.190;18.930;2023-02-19T16:02:44;43.37;37.51;57.63;;
76217;Laerm;65010;50.190;18.930;2023-02-19T16:06:01;46.47;37.78;67.18;;
76217;Laerm;65010;50.190;18.930;2023-02-19T16:09:21;42.18;38.66;55.50;;
76217;Laerm;65010;50.190;18.930;2023-02-19T16:12:29;40.95;38.83;47.09;;
76217;Laerm;65010;50.190;18.930;2023-02-19T16:15:39;43.29;38.93;60.85;;
76217;Laerm;65010;50.190;18.930;2023-02-19T16:18:51;62.98;38.52;82.50;;
76217;Laerm;65010;50.190;18.930;2023-02-19T16:22:00;48.14;38.32;67.26;;
76217;Laerm;65010;50.190;18.930;2023-02-19T16:25:22;43.25;38.35;58.84;;
76217;Laerm;65010;50.190;18.930;2023-02-19T16:28:37;48.15;34.81;64.49;;
76217;Laerm;65010;50.190;18.930;2023-02-19T16:31:49;36.59;34.68;46.68;;
76217;Laerm;65010;50.190;18.930;2023-02-19T16:34:58;37.20;34.74;44.35;;
76217;Laerm;65010;50.190;18.930;2023-02-19T16:38:20;46.77;35.65;63.74;;
76217;Laerm;65010;50.190;18.930;2023-02-19T16:41:26;44.14;37.27;59.76;;
76217;Laerm;65010;50.190;18.930;2023-02-19T16:44:34;46.66;37.65;65.21;;
76217;Laerm;65010;50.190;18.930;2023-02-19T16:47:42;43.48;39.75;60.16;;
76217;Laerm;65010;50.190;18.930;2023-02-19T16:50:53;49.43;37.41;67.80;;
76217;Laerm;65010;50.190;18.930;2023-02-19T16:54:00;43.06;38.57;57.23;;
76217;Laerm;65010;50.190;18.930;2023-02-19T16:57:08;45.79;38.70;63.35;;
76217;Laerm;65010;50.190;18.930;2023-02-19T17:00:17;43.11;38.28;59.76;;
76217;Laerm;65010;50.190;18.930;2023-02-19T17:03:25;51.04;38.23;66.14;;
76217;Laerm;65010;50.190;18.930;2023-02-19T17:06:34;45.09;37.84;60.37;;
76217;Laerm;65010;50.190;18.930;2023-02-19T17:09:43;39.95;38.05;51.44;;
76217;Laerm;65010;50.190;18.930;2023-02-19T17:12:51;44.63;38.22;59.97;;
76217;Laerm;65010;50.190;18.930;2023-02-19T17:15:58;46.80;35.44;65.93;;
76217;Laerm;65010;50.190;18.930;2023-02-19T17:19:11;43.91;35.73;61.74;;
76217;Laerm;65010;50.190;18.930;2023-02-19T17:22:21;42.97;35.35;60.56;;
76217;Laerm;65010;50.190;18.930;2023-02-19T17:25:29;42.66;35.36;61.51;;
76217;Laerm;65010;50.190;18.930;2023-02-19T17:28:35;46.37;37.38;65.61;;
76217;Laerm;65010;50.190;18.930;2023-02-19T17:31:44;39.40;37.09;48.26;;
76217;Laerm;65010;50.190;18.930;2023-02-19T17:34:50;47.26;37.09;63.28;;
76217;Laerm;65010;50.190;18.930;2023-02-19T17:38:03;40.62;38.40;47.02;;
76217;Laerm;65010;50.190;18.930;2023-02-19T17:41:11;44.35;38.70;60.95;;
76217;Laerm;65010;50.190;18.930;2023-02-19T17:44:18;44.58;38.50;62.82;;
76217;Laerm;65010;50.190;18.930;2023-02-19T17:47:24;43.33;38.50;61.57;;
76217;Laerm;65010;50.190;18.930;2023-02-19T17:50:31;46.39;38.42;63.35;;